createdAt,value
2023-05-06T00:02:21.996Z,9.48
2023-05-06T00:04:49.521Z,10.32
2023-05-06T00:07:17.070Z,21.17
2023-05-06T00:09:43.928Z,20.95
2023-05-06T00:12:11.369Z,17.15
2023-05-06T00:14:38.253Z,15.45
2023-05-06T00:17:05.203Z,18.92
2023-05-06T00:19:32.435Z,13.27
2023-05-06T00:21:59.700Z,13.52
2023-05-06T00:24:26.676Z,11.35
2023-05-06T00:26:53.793Z,12.82
2023-05-06T00:29:21.081Z,11.60
2023-05-06T00:31:48.032Z,10.85
2023-05-06T00:34:15.003Z,8.35
2023-05-06T00:36:43.020Z,9.88
2023-05-06T00:39:10.146Z,14.35
2023-05-06T00:41:37.472Z,11.80
2023-05-06T00:44:04.431Z,13.90
2023-05-06T00:46:31.458Z,18.42
2023-05-06T00:48:58.592Z,9.50
2023-05-06T00:51:26.778Z,9.05
2023-05-06T00:53:53.683Z,11.45
2023-05-06T00:56:20.943Z,10.23
2023-05-06T00:58:48.392Z,11.48
2023-05-06T01:01:15.784Z,13.85
2023-05-06T01:03:42.999Z,9.63
2023-05-06T01:06:24.437Z,12.55
2023-05-06T01:09:01.117Z,9.95
2023-05-06T01:11:49.495Z,9.55
2023-05-06T01:14:33.380Z,12.57
2023-05-06T01:17:06.357Z,13.03
2023-05-06T01:19:46.673Z,16.92
2023-05-06T01:22:13.867Z,14.88
2023-05-06T01:24:43.269Z,14.68
2023-05-06T01:27:11.744Z,12.80
2023-05-06T01:29:41.902Z,17.35
2023-05-06T01:32:33.149Z,11.25
2023-05-06T01:35:17.056Z,13.15
2023-05-06T01:37:51.573Z,14.90
2023-05-06T01:42:49.430Z,16.73
2023-05-06T01:45:18.286Z,16.77
2023-05-06T01:47:47.027Z,17.60
2023-05-06T01:50:14.332Z,13.07
2023-05-06T01:52:41.304Z,13.13
2023-05-06T01:55:09.469Z,13.07
2023-05-06T01:57:36.694Z,15.13
2023-05-06T02:00:03.905Z,14.55
2023-05-06T02:02:30.819Z,11.90
2023-05-06T02:04:57.807Z,10.95
2023-05-06T02:07:24.657Z,10.57
2023-05-06T02:09:51.533Z,9.65
2023-05-06T02:12:18.392Z,9.40
2023-05-06T02:14:45.328Z,10.20
2023-05-06T02:17:12.239Z,9.55
2023-05-06T02:19:39.184Z,10.30
2023-05-06T02:22:06.200Z,7.32
2023-05-06T02:24:33.082Z,7.97
2023-05-06T02:27:00.020Z,8.13
2023-05-06T02:29:26.871Z,8.02
2023-05-06T02:31:53.840Z,9.05
2023-05-06T02:34:20.791Z,11.20
2023-05-06T02:36:47.658Z,11.55
2023-05-06T02:39:14.542Z,5.93
2023-05-06T02:41:41.392Z,6.90
2023-05-06T02:44:08.324Z,11.98
2023-05-06T02:46:35.315Z,7.78
2023-05-06T02:49:02.304Z,7.85
2023-05-06T02:51:29.187Z,8.18
2023-05-06T02:53:56.182Z,6.60
2023-05-06T02:56:23.126Z,8.30
2023-05-06T02:58:50.108Z,8.55
2023-05-06T03:01:17.065Z,7.13
2023-05-06T03:03:44.091Z,9.18
2023-05-06T03:06:11.008Z,10.40
2023-05-06T03:08:38.081Z,12.75
2023-05-06T03:11:06.769Z,7.05
2023-05-06T03:13:34.792Z,8.73
2023-05-06T03:16:02.628Z,9.82
2023-05-06T03:18:29.544Z,8.55
2023-05-06T03:20:56.504Z,9.05
2023-05-06T03:23:23.359Z,8.85
2023-05-06T03:25:50.264Z,6.45
2023-05-06T03:28:17.143Z,10.52
2023-05-06T03:30:44.009Z,6.68
2023-05-06T03:33:10.913Z,8.98
2023-05-06T03:35:37.926Z,10.98
2023-05-06T03:38:04.793Z,8.88
2023-05-06T03:40:32.112Z,7.88
2023-05-06T03:42:59.070Z,9.48
2023-05-06T03:45:27.448Z,9.25
2023-05-06T03:47:54.458Z,7.95
2023-05-06T03:50:21.297Z,5.57
2023-05-06T03:52:48.320Z,6.13
2023-05-06T03:55:15.230Z,7.57
2023-05-06T03:57:42.083Z,8.93
2023-05-06T04:00:09.611Z,5.38
2023-05-06T04:02:37.590Z,6.75
2023-05-06T04:05:04.832Z,10.63
2023-05-06T04:07:31.762Z,8.10
2023-05-06T04:09:58.642Z,7.15
2023-05-06T04:12:25.923Z,8.93
2023-05-06T04:14:53.016Z,8.20
2023-05-06T04:17:19.850Z,5.65
2023-05-06T04:19:47.411Z,5.88
2023-05-06T04:22:14.390Z,7.70
2023-05-06T04:24:45.704Z,5.95
2023-05-06T04:27:12.692Z,7.00
2023-05-06T04:29:39.587Z,6.15
2023-05-06T04:32:06.537Z,6.13
2023-05-06T04:34:36.341Z,8.60
2023-05-06T04:37:03.781Z,6.80
2023-05-06T04:39:32.061Z,5.68
2023-05-06T04:41:58.926Z,5.97
2023-05-06T04:44:26.040Z,6.72
2023-05-06T04:46:52.898Z,4.88
2023-05-06T04:49:20.014Z,4.75
2023-05-06T04:51:46.856Z,4.90
2023-05-06T04:54:13.779Z,6.93
2023-05-06T04:56:40.675Z,6.03
2023-05-06T04:59:07.700Z,6.22
2023-05-06T05:01:34.620Z,6.82
2023-05-06T05:04:01.556Z,3.50
2023-05-06T05:06:28.461Z,5.28
2023-05-06T05:08:55.611Z,6.10
2023-05-06T05:11:22.532Z,6.10
2023-05-06T05:13:49.565Z,5.72
2023-05-06T05:16:16.509Z,6.03
2023-05-06T05:18:43.527Z,3.95
2023-05-06T05:21:11.049Z,5.13
2023-05-06T05:23:38.004Z,7.40
2023-05-06T05:26:04.882Z,5.22
2023-05-06T05:28:32.276Z,6.82
2023-05-06T05:31:06.915Z,4.32
2023-05-06T05:33:35.467Z,4.03
2023-05-06T05:36:02.485Z,5.40
2023-05-06T05:38:29.418Z,5.38
2023-05-06T05:40:56.305Z,4.88
2023-05-06T05:43:26.017Z,3.92
2023-05-06T05:45:52.973Z,4.80
2023-05-06T05:48:19.843Z,5.07
2023-05-06T05:50:47.394Z,4.80
2023-05-06T05:53:14.310Z,5.25
2023-05-06T05:55:41.210Z,4.95
2023-05-06T05:58:09.855Z,7.35
2023-05-06T06:00:36.780Z,4.30
2023-05-06T06:03:03.704Z,3.15
2023-05-06T06:05:30.734Z,4.93
2023-05-06T06:07:58.837Z,3.80
2023-05-06T06:10:26.025Z,4.88
2023-05-06T06:12:53.040Z,6.88
2023-05-06T06:15:20.678Z,3.38
2023-05-06T06:17:47.802Z,6.30
2023-05-06T06:20:14.821Z,5.47
2023-05-06T06:22:41.700Z,5.60
2023-05-06T06:25:09.142Z,5.43
2023-05-06T06:27:39.189Z,4.25
2023-05-06T06:30:07.193Z,6.22
2023-05-06T06:32:34.134Z,5.22
2023-05-06T06:35:01.165Z,4.22
2023-05-06T06:37:28.099Z,4.40
2023-05-06T06:39:54.987Z,3.05
2023-05-06T06:42:21.929Z,4.28
2023-05-06T06:44:48.786Z,5.93
2023-05-06T06:47:15.779Z,5.00
2023-05-06T06:49:42.658Z,4.40
2023-05-06T06:52:09.748Z,5.95
2023-05-06T06:54:38.769Z,5.00
2023-05-06T06:57:07.110Z,3.60
2023-05-06T06:59:34.062Z,4.40
2023-05-06T07:02:01.026Z,4.32
2023-05-06T07:04:27.959Z,3.42
2023-05-06T07:06:54.880Z,3.55
2023-05-06T07:09:21.865Z,5.20
2023-05-06T07:11:49.276Z,9.07
2023-05-06T07:14:16.288Z,4.28
2023-05-06T07:16:44.624Z,4.25
2023-05-06T07:19:13.139Z,5.45
2023-05-06T07:21:40.003Z,4.30
2023-05-06T07:24:07.360Z,4.35
2023-05-06T07:26:37.869Z,5.57
2023-05-06T07:29:04.748Z,4.97
2023-05-06T07:31:34.891Z,3.85
2023-05-06T07:34:01.953Z,3.83
2023-05-06T07:36:29.125Z,2.97
2023-05-06T07:38:56.346Z,6.10
2023-05-06T07:41:23.250Z,7.05
2023-05-06T07:43:50.145Z,11.73
2023-05-06T07:46:17.080Z,4.25
2023-05-06T07:48:44.017Z,5.40
2023-05-06T07:51:11.554Z,3.97
2023-05-06T07:53:40.193Z,4.32
2023-05-06T07:56:07.317Z,4.43
2023-05-06T07:58:34.256Z,6.53
2023-05-06T08:01:01.271Z,3.88
2023-05-06T08:03:28.399Z,6.60
2023-05-06T08:05:55.557Z,5.13
2023-05-06T08:08:23.965Z,7.70
2023-05-06T08:10:50.962Z,7.95
2023-05-06T08:13:18.047Z,3.92
2023-05-06T08:15:45.340Z,4.72
2023-05-06T08:21:59.831Z,7.00
2023-05-06T08:28:13.967Z,5.75
2023-05-06T08:34:28.898Z,4.95
2023-05-06T08:36:56.106Z,4.45
2023-05-06T08:39:22.984Z,5.82
2023-05-06T08:41:52.442Z,3.58
2023-05-06T08:44:22.648Z,4.72
2023-05-06T08:46:49.836Z,4.55
2023-05-06T08:49:17.156Z,5.57
2023-05-06T08:51:44.803Z,4.25
2023-05-06T08:54:13.160Z,4.72
2023-05-06T08:56:47.518Z,4.90
2023-05-06T08:59:14.592Z,4.18
2023-05-06T09:01:41.615Z,3.35
2023-05-06T09:04:09.166Z,6.50
2023-05-06T09:06:36.298Z,3.30
2023-05-06T09:09:03.497Z,5.40
2023-05-06T09:11:30.823Z,4.40
2023-05-06T09:14:15.685Z,5.28
2023-05-06T09:16:44.847Z,3.90
2023-05-06T09:19:12.466Z,6.88
2023-05-06T09:21:44.599Z,4.80
2023-05-06T09:24:13.160Z,3.00
2023-05-06T09:26:42.421Z,3.97
2023-05-06T09:29:09.716Z,4.10
2023-05-06T09:31:47.341Z,4.68
2023-05-06T09:34:15.558Z,3.85
2023-05-06T09:36:42.729Z,6.72
2023-05-06T09:39:10.267Z,4.53
2023-05-06T09:41:37.540Z,5.18
2023-05-06T09:44:05.036Z,3.78
2023-05-06T09:46:33.081Z,4.70
2023-05-06T09:49:01.666Z,5.60
2023-05-06T09:51:28.672Z,4.28
2023-05-06T09:53:57.865Z,5.13
2023-05-06T09:56:25.894Z,4.85
2023-05-06T09:58:54.586Z,3.42
2023-05-06T10:01:32.786Z,4.35
2023-05-06T10:04:08.656Z,8.15
2023-05-06T10:06:39.826Z,7.95
2023-05-06T10:09:08.271Z,6.55
2023-05-06T10:11:36.288Z,4.50
2023-05-06T10:14:05.412Z,5.22
2023-05-06T10:16:35.880Z,6.85
2023-05-06T10:19:04.943Z,10.38
2023-05-06T10:21:35.782Z,5.43
2023-05-06T10:24:09.206Z,8.32
2023-05-06T10:26:40.966Z,6.80
2023-05-06T10:29:10.838Z,6.85
2023-05-06T10:31:42.940Z,5.82
2023-05-06T10:34:09.903Z,4.15
2023-05-06T10:36:38.664Z,7.57
2023-05-06T10:39:09.882Z,5.22
2023-05-06T10:41:37.477Z,4.05
2023-05-06T10:44:04.842Z,3.80
2023-05-06T10:46:32.769Z,6.28
2023-05-06T10:49:06.360Z,5.43
2023-05-06T10:51:34.493Z,7.75
2023-05-06T10:54:07.067Z,5.97
2023-05-06T10:56:54.249Z,4.68
2023-05-06T10:59:22.463Z,5.80
2023-05-06T11:02:18.911Z,9.30
2023-05-06T11:04:51.898Z,5.47
2023-05-06T11:07:23.754Z,8.60
2023-05-06T11:10:07.353Z,7.13
2023-05-06T11:12:55.955Z,5.07
2023-05-06T11:15:36.063Z,6.47
2023-05-06T11:18:29.412Z,6.65
2023-05-06T11:21:02.857Z,5.72
2023-05-06T11:23:42.402Z,6.47
2023-05-06T11:26:13.590Z,4.75
2023-05-06T11:28:43.745Z,5.47
2023-05-06T11:31:12.293Z,7.25
2023-05-06T11:33:52.758Z,6.53
2023-05-06T11:36:21.283Z,9.48
2023-05-06T11:38:51.483Z,5.47
2023-05-06T11:41:18.960Z,6.60
2023-05-06T11:43:53.552Z,4.82
2023-05-06T11:46:22.047Z,4.75
2023-05-06T11:48:50.432Z,5.80
2023-05-06T11:51:22.760Z,9.55
2023-05-06T11:53:49.817Z,5.07
2023-05-06T11:56:16.943Z,7.28
2023-05-06T11:58:44.215Z,10.60
2023-05-06T12:01:11.332Z,3.75
2023-05-06T12:03:38.408Z,5.13
2023-05-06T12:06:05.498Z,6.13
2023-05-06T12:08:34.088Z,5.60
2023-05-06T12:11:08.523Z,4.40
2023-05-06T12:16:05.880Z,7.70
2023-05-06T12:18:33.284Z,4.50
2023-05-06T12:21:02.989Z,4.10
2023-05-06T12:23:30.066Z,8.18
2023-05-06T12:26:04.294Z,6.25
2023-05-06T12:28:32.832Z,4.93
2023-05-06T12:31:00.815Z,8.35
2023-05-06T12:33:28.030Z,4.30
2023-05-06T12:36:06.866Z,4.15
2023-05-06T12:38:33.816Z,5.20
2023-05-06T12:41:00.846Z,4.80
2023-05-06T12:43:31.551Z,6.25
2023-05-06T12:46:08.992Z,5.35
2023-05-06T12:48:36.082Z,8.15
2023-05-06T12:51:19.136Z,6.60
2023-05-06T12:53:46.304Z,5.60
2023-05-06T12:56:13.527Z,4.65
2023-05-06T12:58:40.546Z,4.72
2023-05-06T13:01:10.494Z,4.32
2023-05-06T13:03:38.839Z,5.78
2023-05-06T13:06:06.180Z,8.00
2023-05-06T13:08:33.978Z,6.82
2023-05-06T13:11:02.661Z,6.03
2023-05-06T13:13:29.638Z,8.82
2023-05-06T13:15:57.156Z,4.75
2023-05-06T13:18:24.022Z,5.45
2023-05-06T13:20:51.871Z,4.45
2023-05-06T13:23:19.671Z,8.50
2023-05-06T13:26:02.834Z,5.68
2023-05-06T13:30:59.140Z,6.32
2023-05-06T13:33:26.109Z,4.25
2023-05-06T13:35:53.045Z,8.70
2023-05-06T13:38:19.936Z,4.03
2023-05-06T13:40:52.453Z,4.28
2023-05-06T13:43:20.205Z,4.80
2023-05-06T13:45:47.156Z,3.63
2023-05-06T13:48:14.570Z,4.80
2023-05-06T13:50:42.757Z,5.50
2023-05-06T13:53:09.765Z,3.88
2023-05-06T13:55:36.736Z,5.53
2023-05-06T13:58:05.576Z,5.97
2023-05-06T14:00:33.398Z,5.72
2023-05-06T14:03:00.801Z,6.30
2023-05-06T14:05:27.830Z,4.53
2023-05-06T14:07:54.783Z,7.68
2023-05-06T14:10:21.786Z,5.47
2023-05-06T14:12:48.655Z,6.65
2023-05-06T14:15:15.737Z,5.32
2023-05-06T14:17:43.018Z,5.90
2023-05-06T14:20:10.650Z,5.93
2023-05-06T14:22:41.109Z,5.47
2023-05-06T14:25:09.046Z,3.78
2023-05-06T14:27:36.350Z,4.63
2023-05-06T14:30:08.145Z,6.03
2023-05-06T14:32:35.859Z,4.53
2023-05-06T14:35:02.850Z,4.28
2023-05-06T14:37:29.908Z,6.85
2023-05-06T14:39:57.648Z,5.38
2023-05-06T14:42:24.553Z,4.82
2023-05-06T14:44:51.452Z,8.32
2023-05-06T14:47:18.458Z,8.60
2023-05-06T14:49:45.330Z,6.28
2023-05-06T14:52:12.234Z,3.38
2023-05-06T14:54:42.525Z,6.13
2023-05-06T14:57:09.906Z,6.32
2023-05-06T14:59:37.716Z,3.88
2023-05-06T15:02:07.170Z,6.72
2023-05-06T15:04:34.906Z,6.75
2023-05-06T15:07:02.302Z,6.55
2023-05-06T15:09:29.243Z,4.80
2023-05-06T15:11:56.228Z,5.47
2023-05-06T15:14:23.173Z,5.30
2023-05-06T15:16:50.140Z,8.18
2023-05-06T15:19:17.098Z,6.32
2023-05-06T15:21:44.145Z,8.75
2023-05-06T15:24:11.048Z,5.53
2023-05-06T15:26:37.897Z,4.03
2023-05-06T15:29:06.409Z,5.15
2023-05-06T15:31:39.008Z,4.43
2023-05-06T15:34:07.016Z,4.22
2023-05-06T15:36:33.929Z,5.00
2023-05-06T15:39:01.167Z,6.22
2023-05-06T15:41:30.782Z,7.05
2023-05-06T15:43:59.267Z,5.63
2023-05-06T15:46:27.772Z,8.25
2023-05-06T15:49:15.762Z,6.35
2023-05-06T15:51:41.999Z,3.25
2023-05-06T15:54:09.006Z,5.53
2023-05-06T15:56:40.674Z,7.45
2023-05-06T15:59:08.435Z,4.43
2023-05-06T16:02:16.582Z,4.88
2023-05-06T16:04:23.203Z,4.07
2023-05-06T16:06:50.702Z,3.92
2023-05-06T16:09:17.581Z,6.93
2023-05-06T16:11:44.666Z,5.95
2023-05-06T16:14:11.627Z,6.70
2023-05-06T16:16:38.686Z,4.88
2023-05-06T16:19:05.771Z,7.90
2023-05-06T16:21:32.696Z,3.83
2023-05-06T16:24:00.915Z,6.32
2023-05-06T16:26:27.800Z,7.53
2023-05-06T16:28:54.875Z,5.13
2023-05-06T16:31:21.902Z,4.50
2023-05-06T16:33:49.383Z,4.63
2023-05-06T16:36:16.305Z,5.03
2023-05-06T16:38:43.428Z,10.80
2023-05-06T16:41:10.299Z,7.03
2023-05-06T16:43:37.209Z,5.63
2023-05-06T16:46:04.294Z,6.15
2023-05-06T16:48:31.182Z,6.88
2023-05-06T16:50:58.554Z,5.40
2023-05-06T16:53:27.865Z,7.80
2023-05-06T16:55:55.871Z,5.85
2023-05-06T16:58:22.741Z,6.72
2023-05-06T17:00:52.787Z,8.20
2023-05-06T17:03:19.854Z,8.18
2023-05-06T17:05:47.135Z,5.07
2023-05-06T17:08:16.125Z,5.93
2023-05-06T17:10:43.892Z,4.63
2023-05-06T17:13:10.935Z,5.78
2023-05-06T17:15:38.053Z,10.27
2023-05-06T17:18:05.383Z,8.07
2023-05-06T17:20:35.692Z,7.07
2023-05-06T17:23:11.138Z,8.18
2023-05-06T17:25:38.048Z,6.53
2023-05-06T17:28:04.953Z,7.45
2023-05-06T17:30:31.952Z,6.30
2023-05-06T17:32:58.945Z,7.88
2023-05-06T17:35:26.253Z,4.88
2023-05-06T17:37:55.115Z,6.18
2023-05-06T17:40:22.180Z,6.32
2023-05-06T17:42:49.169Z,7.57
2023-05-06T17:45:16.278Z,4.20
2023-05-06T17:47:43.529Z,3.72
2023-05-06T17:50:11.132Z,3.85
2023-05-06T17:52:38.023Z,7.63
2023-05-06T17:55:16.163Z,5.80
2023-05-06T17:57:43.701Z,9.38
2023-05-06T18:00:11.617Z,4.90
2023-05-06T18:02:38.772Z,5.22
2023-05-06T18:05:06.672Z,6.82
2023-05-06T18:07:35.348Z,8.00
2023-05-06T18:10:02.397Z,5.78
2023-05-06T18:12:29.366Z,6.15
2023-05-06T18:14:57.300Z,5.72
2023-05-06T18:17:24.306Z,6.03
2023-05-06T18:19:51.248Z,7.38
2023-05-06T18:22:18.153Z,4.72
2023-05-06T18:24:45.034Z,4.65
2023-05-06T18:27:13.087Z,7.00
2023-05-06T18:29:41.421Z,5.22
2023-05-06T18:32:08.586Z,5.32
2023-05-06T18:34:35.793Z,7.22
2023-05-06T18:37:02.772Z,5.97
2023-05-06T18:39:29.663Z,4.53
2023-05-06T18:41:56.623Z,7.32
2023-05-06T18:44:23.573Z,7.38
2023-05-06T18:46:50.528Z,7.53
2023-05-06T18:49:17.448Z,10.05
2023-05-06T18:51:44.353Z,6.95
2023-05-06T18:54:12.873Z,7.75
2023-05-06T18:56:42.567Z,8.07
2023-05-06T18:59:09.812Z,6.05
2023-05-06T19:01:36.780Z,10.68
2023-05-06T19:04:04.285Z,12.27
2023-05-06T19:06:32.503Z,5.97
2023-05-06T19:08:59.545Z,6.13
2023-05-06T19:11:26.501Z,8.93
2023-05-06T19:13:53.425Z,8.35
2023-05-06T19:16:20.415Z,6.60
2023-05-06T19:18:47.949Z,11.57
2023-05-06T19:21:18.797Z,5.03
2023-05-06T19:23:45.871Z,7.07
2023-05-06T19:26:13.960Z,9.80
2023-05-06T19:28:40.988Z,7.07
2023-05-06T19:31:11.640Z,9.43
2023-05-06T19:33:39.234Z,5.53
2023-05-06T19:36:06.901Z,6.43
2023-05-06T19:38:34.519Z,8.18
2023-05-06T19:41:01.764Z,11.52
2023-05-06T19:43:28.884Z,5.57
2023-05-06T19:49:36.373Z,8.93
2023-05-06T19:55:51.626Z,6.65
2023-05-06T19:58:19.436Z,6.35
2023-05-06T20:00:46.353Z,7.97
2023-05-06T20:03:13.596Z,8.40
2023-05-06T20:05:41.320Z,6.53
2023-05-06T20:08:11.450Z,9.27
2023-05-06T20:10:38.531Z,7.93
2023-05-06T20:13:06.601Z,4.50
2023-05-06T20:15:33.844Z,9.48
2023-05-06T20:18:00.853Z,6.28
2023-05-06T20:20:34.293Z,8.02
2023-05-06T20:23:04.565Z,6.27
2023-05-06T20:25:31.867Z,8.23
2023-05-06T20:27:59.515Z,9.20
2023-05-06T20:30:27.021Z,6.03
2023-05-06T20:32:54.073Z,7.72
2023-05-06T20:35:21.063Z,5.25
2023-05-06T20:37:47.940Z,9.02
2023-05-06T20:40:15.442Z,8.88
2023-05-06T20:42:42.375Z,7.50
2023-05-06T20:45:10.072Z,7.90
2023-05-06T20:47:37.312Z,9.55
2023-05-06T20:50:04.495Z,7.05
2023-05-06T20:52:31.692Z,7.50
2023-05-06T20:54:58.632Z,9.95
2023-05-06T20:57:25.597Z,8.85
2023-05-06T20:59:52.829Z,6.80
2023-05-06T21:02:19.829Z,8.93
2023-05-06T21:04:46.894Z,9.80
2023-05-06T21:07:13.858Z,6.13
2023-05-06T21:09:40.872Z,9.00
2023-05-06T21:12:07.832Z,8.52
2023-05-06T21:14:34.807Z,11.68
2023-05-06T21:17:01.732Z,12.77
2023-05-06T21:19:28.743Z,10.13
2023-05-06T21:21:56.787Z,8.52
2023-05-06T21:24:23.671Z,15.30
2023-05-06T21:26:51.453Z,10.15
2023-05-06T21:29:18.382Z,8.90
2023-05-06T21:31:45.324Z,10.68
2023-05-06T21:34:12.277Z,9.93
2023-05-06T21:36:39.179Z,9.63
2023-05-06T21:39:10.833Z,11.57
2023-05-06T21:41:38.552Z,9.48
2023-05-06T21:44:06.798Z,7.35
2023-05-06T21:46:34.546Z,9.48
2023-05-06T21:49:01.647Z,11.13
2023-05-06T21:51:30.640Z,8.48
2023-05-06T21:53:57.478Z,9.52
2023-05-06T21:56:24.488Z,13.27
2023-05-06T21:58:52.476Z,13.15
2023-05-06T22:01:19.505Z,12.38
2023-05-06T22:03:46.702Z,10.60
2023-05-06T22:06:13.912Z,7.60
2023-05-06T22:08:41.838Z,9.57
2023-05-06T22:11:08.745Z,10.23
2023-05-06T22:13:35.797Z,15.30
2023-05-06T22:16:02.783Z,11.27
2023-05-06T22:18:30.192Z,11.60
2023-05-06T22:20:57.941Z,10.23
2023-05-06T22:23:25.672Z,9.30
2023-05-06T22:25:52.603Z,12.15
2023-05-06T22:28:20.087Z,13.15
2023-05-06T22:30:47.070Z,11.35
2023-05-06T22:33:14.043Z,11.90
2023-05-06T22:35:41.049Z,12.98
2023-05-06T22:38:08.671Z,10.07
2023-05-06T22:40:35.638Z,9.73
2023-05-06T22:43:02.523Z,11.93
2023-05-06T22:45:29.556Z,10.80
2023-05-06T22:47:56.952Z,10.32
2023-05-06T22:50:25.110Z,11.55
2023-05-06T22:52:52.213Z,14.45
2023-05-06T22:55:19.243Z,12.18
2023-05-06T22:57:49.900Z,12.88
2023-05-06T23:00:17.602Z,11.70
2023-05-06T23:02:44.712Z,12.70
2023-05-06T23:05:12.649Z,11.05
2023-05-06T23:07:39.900Z,13.45
2023-05-06T23:10:07.534Z,9.27
2023-05-06T23:12:34.951Z,14.75
2023-05-06T23:15:02.090Z,13.40
2023-05-06T23:17:28.982Z,11.77
2023-05-06T23:19:55.907Z,13.48
2023-05-06T23:22:22.969Z,16.02
2023-05-06T23:24:50.266Z,12.35
2023-05-06T23:27:17.172Z,11.45
2023-05-06T23:29:44.235Z,11.75
2023-05-06T23:32:11.096Z,10.85
2023-05-06T23:34:38.143Z,14.23
2023-05-06T23:37:05.097Z,14.77
2023-05-06T23:39:31.949Z,13.05
2023-05-06T23:42:00.909Z,13.15
2023-05-06T23:44:27.772Z,13.95
2023-05-06T23:46:54.790Z,11.23
2023-05-06T23:49:22.798Z,11.80
2023-05-06T23:51:49.667Z,16.13
2023-05-06T23:54:16.599Z,13.73
2023-05-06T23:56:43.528Z,14.15
2023-05-06T23:59:11.537Z,13.48
